sensor_id;sensor_type;location;lat;lon;timestamp;pressure;altitude;pressure_sealevel;temperature;humidity
53758;BME280;39674;59.860;30.672;2022-08-21T00:02:30;101785.00;;;15.91;65.41
53758;BME280;39674;59.860;30.672;2022-08-21T00:05:02;101833.28;;;16.16;65.32
53758;BME280;39674;59.860;30.672;2022-08-21T00:07:34;101861.88;;;16.29;65.65
53758;BME280;39674;59.860;30.672;2022-08-21T00:10:09;101855.44;;;16.17;66.21
53758;BME280;39674;59.860;30.672;2022-08-21T00:12:41;101835.16;;;16.14;66.04
53758;BME280;39674;59.860;30.672;2022-08-21T00:15:18;101775.84;;;15.79;66.28
53758;BME280;39674;59.860;30.672;2022-08-21T00:17:52;101843.56;;;16.23;65.98
53758;BME280;39674;59.860;30.672;2022-08-21T00:20:24;101865.91;;;16.36;65.96
53758;BME280;39674;59.860;30.672;2022-08-21T00:23:04;101852.00;;;16.31;65.71
53758;BME280;39674;59.860;30.672;2022-08-21T00:25:34;101775.63;;;15.83;66.02
53758;BME280;39674;59.860;30.672;2022-08-21T00:28:06;101894.00;;;16.58;65.42
53758;BME280;39674;59.860;30.672;2022-08-21T00:30:38;101886.66;;;16.61;65.49
53758;BME280;39674;59.860;30.672;2022-08-21T00:33:09;101791.16;;;16.07;65.38
53758;BME280;39674;59.860;30.672;2022-08-21T00:35:42;101832.00;;;16.38;65.50
53758;BME280;39674;59.860;30.672;2022-08-21T00:38:11;101843.97;;;16.47;65.19
53758;BME280;39674;59.860;30.672;2022-08-21T00:40:44;101768.31;;;16.03;65.42
53758;BME280;39674;59.860;30.672;2022-08-21T00:43:15;101825.66;;;16.41;65.39
53758;BME280;39674;59.860;30.672;2022-08-21T00:45:46;101757.22;;;15.95;65.61
53758;BME280;39674;59.860;30.672;2022-08-21T00:48:15;101754.66;;;15.93;65.98
53758;BME280;39674;59.860;30.672;2022-08-21T00:50:50;101822.94;;;16.26;66.44
53758;BME280;39674;59.860;30.672;2022-08-21T00:53:22;101792.09;;;16.06;66.34
53758;BME280;39674;59.860;30.672;2022-08-21T00:55:57;101812.53;;;16.22;66.88
53758;BME280;39674;59.860;30.672;2022-08-21T00:58:27;101832.72;;;16.26;66.58
53758;BME280;39674;59.860;30.672;2022-08-21T01:00:59;101851.81;;;16.34;66.97
53758;BME280;39674;59.860;30.672;2022-08-21T01:03:34;101811.38;;;16.11;67.42
53758;BME280;39674;59.860;30.672;2022-08-21T01:06:07;101848.47;;;16.30;67.48
53758;BME280;39674;59.860;30.672;2022-08-21T01:08:38;101828.63;;;16.20;67.04
53758;BME280;39674;59.860;30.672;2022-08-21T01:11:12;101791.84;;;15.95;68.09
53758;BME280;39674;59.860;30.672;2022-08-21T01:13:42;101838.06;;;16.26;67.41
53758;BME280;39674;59.860;30.672;2022-08-21T01:16:15;101841.50;;;16.28;66.61
53758;BME280;39674;59.860;30.672;2022-08-21T01:18:45;101832.34;;;16.17;67.43
53758;BME280;39674;59.860;30.672;2022-08-21T01:21:18;101804.03;;;15.99;68.05
53758;BME280;39674;59.860;30.672;2022-08-21T01:23:51;101795.66;;;15.91;68.09
53758;BME280;39674;59.860;30.672;2022-08-21T01:26:25;101864.72;;;16.26;69.65
53758;BME280;39674;59.860;30.672;2022-08-21T01:28:58;101793.03;;;15.73;70.59
53758;BME280;39674;59.860;30.672;2022-08-21T01:31:31;101872.09;;;16.36;68.83
53758;BME280;39674;59.860;30.672;2022-08-21T01:34:00;101729.66;;;15.32;69.91
53758;BME280;39674;59.860;30.672;2022-08-21T01:36:31;101824.66;;;15.79;71.50
53758;BME280;39674;59.860;30.672;2022-08-21T01:39:01;101871.63;;;15.98;71.77
53758;BME280;39674;59.860;30.672;2022-08-21T01:41:30;101814.09;;;15.62;71.98
53758;BME280;39674;59.860;30.672;2022-08-21T01:43:59;101852.06;;;15.81;71.18
53758;BME280;39674;59.860;30.672;2022-08-21T01:46:31;101856.69;;;15.78;72.28
53758;BME280;39674;59.860;30.672;2022-08-21T01:49:00;101758.13;;;15.14;73.27
53758;BME280;39674;59.860;30.672;2022-08-21T01:51:32;101857.91;;;15.72;73.82
53758;BME280;39674;59.860;30.672;2022-08-21T01:54:04;101859.69;;;15.55;73.33
53758;BME280;39674;59.860;30.672;2022-08-21T01:56:37;101726.56;;;14.74;72.60
53758;BME280;39674;59.860;30.672;2022-08-21T01:59:09;101783.16;;;14.94;73.27
53758;BME280;39674;59.860;30.672;2022-08-21T02:01:38;101810.50;;;15.13;72.29
53758;BME280;39674;59.860;30.672;2022-08-21T02:04:10;101779.84;;;14.88;72.97
53758;BME280;39674;59.860;30.672;2022-08-21T02:06:41;101810.81;;;15.07;72.44
53758;BME280;39674;59.860;30.672;2022-08-21T02:09:14;101816.16;;;15.07;73.59
53758;BME280;39674;59.860;30.672;2022-08-21T02:11:44;101847.78;;;15.29;72.18
53758;BME280;39674;59.860;30.672;2022-08-21T02:14:14;101802.06;;;15.05;72.49
53758;BME280;39674;59.860;30.672;2022-08-21T02:16:45;101808.06;;;15.08;72.09
53758;BME280;39674;59.860;30.672;2022-08-21T02:19:16;101817.00;;;15.07;72.35
53758;BME280;39674;59.860;30.672;2022-08-21T02:21:48;101817.13;;;15.04;72.65
53758;BME280;39674;59.860;30.672;2022-08-21T02:24:19;101763.59;;;14.59;73.86
53758;BME280;39674;59.860;30.672;2022-08-21T02:26:50;101846.03;;;15.12;74.84
53758;BME280;39674;59.860;30.672;2022-08-21T02:29:19;101786.59;;;14.60;75.49
53758;BME280;39674;59.860;30.672;2022-08-21T02:31:48;101838.22;;;14.91;74.56
53758;BME280;39674;59.860;30.672;2022-08-21T02:34:16;101747.81;;;14.39;75.87
53758;BME280;39674;59.860;30.672;2022-08-21T02:36:55;101812.25;;;14.79;74.97
53758;BME280;39674;59.860;30.672;2022-08-21T02:39:24;101811.69;;;14.72;75.95
53758;BME280;39674;59.860;30.672;2022-08-21T02:41:53;101812.91;;;14.67;75.79
53758;BME280;39674;59.860;30.672;2022-08-21T02:44:22;101753.44;;;14.33;75.50
53758;BME280;39674;59.860;30.672;2022-08-21T02:46:53;101861.13;;;14.94;76.22
53758;BME280;39674;59.860;30.672;2022-08-21T02:49:24;101782.34;;;14.39;75.99
53758;BME280;39674;59.860;30.672;2022-08-21T02:51:56;101729.53;;;14.15;78.07
53758;BME280;39674;59.860;30.672;2022-08-21T02:54:27;101773.06;;;14.30;78.15
53758;BME280;39674;59.860;30.672;2022-08-21T02:57:05;101804.03;;;14.49;78.22
53758;BME280;39674;59.860;30.672;2022-08-21T02:59:38;101811.59;;;14.56;77.42
53758;BME280;39674;59.860;30.672;2022-08-21T03:02:08;101809.25;;;14.50;77.81
53758;BME280;39674;59.860;30.672;2022-08-21T03:04:38;101854.81;;;14.79;77.63
53758;BME280;39674;59.860;30.672;2022-08-21T03:07:14;101809.09;;;14.53;78.06
53758;BME280;39674;59.860;30.672;2022-08-21T03:09:48;101803.63;;;14.39;79.17
53758;BME280;39674;59.860;30.672;2022-08-21T03:12:16;101850.31;;;14.62;79.54
53758;BME280;39674;59.860;30.672;2022-08-21T03:14:51;101796.88;;;14.32;79.96
53758;BME280;39674;59.860;30.672;2022-08-21T03:17:21;101805.78;;;14.31;80.49
53758;BME280;39674;59.860;30.672;2022-08-21T03:19:50;101766.22;;;14.07;80.07
53758;BME280;39674;59.860;30.672;2022-08-21T03:22:25;101800.25;;;14.35;80.82
53758;BME280;39674;59.860;30.672;2022-08-21T03:24:54;101812.22;;;14.44;80.46
53758;BME280;39674;59.860;30.672;2022-08-21T03:27:23;101810.34;;;14.46;80.90
53758;BME280;39674;59.860;30.672;2022-08-21T03:29:53;101804.88;;;14.49;80.94
53758;BME280;39674;59.860;30.672;2022-08-21T03:32:22;101799.56;;;14.49;81.29
53758;BME280;39674;59.860;30.672;2022-08-21T03:34:51;101751.88;;;14.28;80.16
53758;BME280;39674;59.860;30.672;2022-08-21T03:37:22;101811.97;;;14.68;80.18
53758;BME280;39674;59.860;30.672;2022-08-21T03:39:51;101808.50;;;14.66;80.04
53758;BME280;39674;59.860;30.672;2022-08-21T03:42:24;101765.00;;;14.49;80.61
53758;BME280;39674;59.860;30.672;2022-08-21T03:44:53;101773.22;;;14.62;81.46
53758;BME280;39674;59.860;30.672;2022-08-21T03:47:22;101810.06;;;14.87;81.17
53758;BME280;39674;59.860;30.672;2022-08-21T03:49:50;101781.91;;;14.83;80.91
53758;BME280;39674;59.860;30.672;2022-08-21T03:52:19;101806.06;;;14.96;81.41
53758;BME280;39674;59.860;30.672;2022-08-21T03:54:50;101790.09;;;14.96;81.76
53758;BME280;39674;59.860;30.672;2022-08-21T03:57:20;101815.03;;;15.11;81.45
53758;BME280;39674;59.860;30.672;2022-08-21T03:59:50;101807.19;;;15.08;81.55
53758;BME280;39674;59.860;30.672;2022-08-21T04:02:20;101800.31;;;15.04;81.94
53758;BME280;39674;59.860;30.672;2022-08-21T04:04:52;101808.59;;;15.15;81.78
53758;BME280;39674;59.860;30.672;2022-08-21T04:07:22;101801.22;;;15.20;82.04
53758;BME280;39674;59.860;30.672;2022-08-21T04:09:54;101801.75;;;15.27;81.58
53758;BME280;39674;59.860;30.672;2022-08-21T04:12:23;101835.81;;;15.54;81.53
53758;BME280;39674;59.860;30.672;2022-08-21T04:14:53;101841.75;;;15.59;81.19
53758;BME280;39674;59.860;30.672;2022-08-21T04:17:22;101715.31;;;14.85;82.17
53758;BME280;39674;59.860;30.672;2022-08-21T04:19:50;101805.38;;;15.42;81.46
53758;BME280;39674;59.860;30.672;2022-08-21T04:22:24;101846.81;;;15.64;81.64
53758;BME280;39674;59.860;30.672;2022-08-21T04:24:55;101839.63;;;15.66;81.79
53758;BME280;39674;59.860;30.672;2022-08-21T04:27:24;101774.31;;;15.27;81.71
53758;BME280;39674;59.860;30.672;2022-08-21T04:29:53;101802.28;;;15.50;81.82
53758;BME280;39674;59.860;30.672;2022-08-21T04:32:22;101796.91;;;15.51;81.26
53758;BME280;39674;59.860;30.672;2022-08-21T04:34:58;101711.84;;;15.00;82.01
53758;BME280;39674;59.860;30.672;2022-08-21T04:37:28;101750.75;;;15.19;81.95
53758;BME280;39674;59.860;30.672;2022-08-21T04:39:57;101761.06;;;15.41;81.86
53758;BME280;39674;59.860;30.672;2022-08-21T04:42:27;101802.00;;;15.72;81.26
53758;BME280;39674;59.860;30.672;2022-08-21T04:44:59;101792.69;;;15.79;81.54
53758;BME280;39674;59.860;30.672;2022-08-21T04:47:28;101789.06;;;15.80;80.43
53758;BME280;39674;59.860;30.672;2022-08-21T04:49:58;101839.69;;;16.12;80.81
53758;BME280;39674;59.860;30.672;2022-08-21T04:52:26;101833.75;;;16.23;81.02
53758;BME280;39674;59.860;30.672;2022-08-21T04:55:07;101741.13;;;15.80;80.80
53758;BME280;39674;59.860;30.672;2022-08-21T04:57:39;101711.09;;;15.78;79.37
53758;BME280;39674;59.860;30.672;2022-08-21T05:00:11;101712.78;;;15.95;79.84
53758;BME280;39674;59.860;30.672;2022-08-21T05:02:41;101711.09;;;15.94;78.17
53758;BME280;39674;59.860;30.672;2022-08-21T05:05:10;101706.78;;;15.92;78.44
53758;BME280;39674;59.860;30.672;2022-08-21T05:07:44;101708.84;;;15.86;78.90
53758;BME280;39674;59.860;30.672;2022-08-21T05:10:16;101780.97;;;16.30;79.43
53758;BME280;39674;59.860;30.672;2022-08-21T05:12:50;101776.38;;;16.17;79.56
53758;BME280;39674;59.860;30.672;2022-08-21T05:15:19;101787.03;;;16.17;79.94
53758;BME280;39674;59.860;30.672;2022-08-21T05:17:49;101714.84;;;15.74;80.19
53758;BME280;39674;59.860;30.672;2022-08-21T05:20:22;101753.03;;;15.91;80.17
53758;BME280;39674;59.860;30.672;2022-08-21T05:22:51;101805.59;;;16.19;79.72
53758;BME280;39674;59.860;30.672;2022-08-21T05:25:22;101708.34;;;15.64;80.19
53758;BME280;39674;59.860;30.672;2022-08-21T05:27:51;101741.00;;;15.83;80.09
53758;BME280;39674;59.860;30.672;2022-08-21T05:30:20;101720.53;;;15.68;79.53
53758;BME280;39674;59.860;30.672;2022-08-21T05:32:49;101781.63;;;16.03;80.52
53758;BME280;39674;59.860;30.672;2022-08-21T05:35:26;101725.50;;;15.74;80.22
53758;BME280;39674;59.860;30.672;2022-08-21T05:38:00;101761.25;;;16.02;80.39
53758;BME280;39674;59.860;30.672;2022-08-21T05:40:33;101711.44;;;15.72;79.69
53758;BME280;39674;59.860;30.672;2022-08-21T05:43:03;101772.91;;;16.15;80.06
53758;BME280;39674;59.860;30.672;2022-08-21T05:45:36;101783.03;;;16.25;80.65
53758;BME280;39674;59.860;30.672;2022-08-21T05:48:11;101749.88;;;16.14;80.49
53758;BME280;39674;59.860;30.672;2022-08-21T05:50:43;101776.78;;;16.40;80.06
53758;BME280;39674;59.860;30.672;2022-08-21T05:53:16;101700.22;;;15.97;80.02
53758;BME280;39674;59.860;30.672;2022-08-21T05:55:50;101759.19;;;16.38;79.64
53758;BME280;39674;59.860;30.672;2022-08-21T05:58:23;101764.41;;;16.39;80.39
53758;BME280;39674;59.860;30.672;2022-08-21T06:00:52;101804.44;;;16.53;80.38
53758;BME280;39674;59.860;30.672;2022-08-21T06:03:25;101729.59;;;16.12;79.63
53758;BME280;39674;59.860;30.672;2022-08-21T06:05:54;101729.22;;;16.18;80.21
53758;BME280;39674;59.860;30.672;2022-08-21T06:08:41;101690.81;;;15.92;80.00
53758;BME280;39674;59.860;30.672;2022-08-21T06:11:42;101811.72;;;16.66;80.19
53758;BME280;39674;59.860;30.672;2022-08-21T06:14:16;101720.28;;;16.19;79.92
53758;BME280;39674;59.860;30.672;2022-08-21T06:16:52;101755.88;;;16.48;79.67
53758;BME280;39674;59.860;30.672;2022-08-21T06:19:30;101761.41;;;16.60;79.03
53758;BME280;39674;59.860;30.672;2022-08-21T06:22:18;101756.44;;;16.53;78.79
53758;BME280;39674;59.860;30.672;2022-08-21T06:25:02;101812.75;;;16.94;79.50
53758;BME280;39674;59.860;30.672;2022-08-21T06:28:16;101766.22;;;16.69;78.96
53758;BME280;39674;59.860;30.672;2022-08-21T06:30:48;101684.19;;;16.13;79.61
53758;BME280;39674;59.860;30.672;2022-08-21T06:33:41;101714.69;;;16.38;79.19
53758;BME280;39674;59.860;30.672;2022-08-21T06:36:16;101748.66;;;16.65;79.06
53758;BME280;39674;59.860;30.672;2022-08-21T06:38:49;101743.16;;;16.68;79.12
53758;BME280;39674;59.860;30.672;2022-08-21T06:41:40;101744.66;;;16.72;78.84
53758;BME280;39674;59.860;30.672;2022-08-21T06:44:12;101769.19;;;16.93;78.82
53758;BME280;39674;59.860;30.672;2022-08-21T06:46:43;101724.28;;;16.71;79.17
53758;BME280;39674;59.860;30.672;2022-08-21T06:49:15;101719.31;;;16.79;79.30
53758;BME280;39674;59.860;30.672;2022-08-21T06:51:49;101672.75;;;16.71;77.80
53758;BME280;39674;59.860;30.672;2022-08-21T06:54:32;101667.88;;;16.77;77.21
53758;BME280;39674;59.860;30.672;2022-08-21T06:57:20;101741.41;;;17.54;77.96
53758;BME280;39674;59.860;30.672;2022-08-21T06:59:57;101742.44;;;17.93;75.57
53758;BME280;39674;59.860;30.672;2022-08-21T07:02:32;101661.28;;;17.54;74.64
53758;BME280;39674;59.860;30.672;2022-08-21T07:05:12;101786.16;;;18.19;73.64
53758;BME280;39674;59.860;30.672;2022-08-21T07:07:58;101656.41;;;17.19;75.32
53758;BME280;39674;59.860;30.672;2022-08-21T07:10:34;101774.13;;;17.99;75.11
53758;BME280;39674;59.860;30.672;2022-08-21T07:13:03;101724.44;;;17.55;76.15
53758;BME280;39674;59.860;30.672;2022-08-21T07:15:36;101713.78;;;17.40;75.56
53758;BME280;39674;59.860;30.672;2022-08-21T07:18:17;101717.19;;;17.42;76.39
53758;BME280;39674;59.860;30.672;2022-08-21T07:20:53;101629.78;;;16.90;75.93
53758;BME280;39674;59.860;30.672;2022-08-21T07:23:41;101759.72;;;17.60;76.30
53758;BME280;39674;59.860;30.672;2022-08-21T07:26:23;101713.31;;;17.33;77.30
53758;BME280;39674;59.860;30.672;2022-08-21T07:29:02;101750.81;;;17.59;76.77
53758;BME280;39674;59.860;30.672;2022-08-21T07:31:36;101758.91;;;17.72;76.78
53758;BME280;39674;59.860;30.672;2022-08-21T07:34:06;101675.44;;;17.41;76.18
53758;BME280;39674;59.860;30.672;2022-08-21T07:36:40;101672.91;;;17.53;75.82
53758;BME280;39674;59.860;30.672;2022-08-21T07:39:09;101657.47;;;17.43;75.16
53758;BME280;39674;59.860;30.672;2022-08-21T07:41:43;101745.25;;;18.04;74.40
53758;BME280;39674;59.860;30.672;2022-08-21T07:44:26;101659.63;;;17.24;74.17
53758;BME280;39674;59.860;30.672;2022-08-21T07:47:04;101610.88;;;17.07;75.95
53758;BME280;39674;59.860;30.672;2022-08-21T07:49:36;101732.13;;;18.14;75.71
53758;BME280;39674;59.860;30.672;2022-08-21T07:52:10;101682.19;;;18.15;73.57
53758;BME280;39674;59.860;30.672;2022-08-21T07:55:00;101683.94;;;18.28;72.87
53758;BME280;39674;59.860;30.672;2022-08-21T07:57:38;101675.56;;;18.20;72.33
53758;BME280;39674;59.860;30.672;2022-08-21T08:00:22;101675.22;;;17.99;72.45
53758;BME280;39674;59.860;30.672;2022-08-21T08:02:55;101655.00;;;17.95;73.46
53758;BME280;39674;59.860;30.672;2022-08-21T08:05:32;101600.63;;;17.69;72.84
53758;BME280;39674;59.860;30.672;2022-08-21T08:08:09;101719.34;;;18.32;73.44
53758;BME280;39674;59.860;30.672;2022-08-21T08:10:43;101670.66;;;18.14;73.33
53758;BME280;39674;59.860;30.672;2022-08-21T08:13:15;101727.38;;;18.58;73.32
53758;BME280;39674;59.860;30.672;2022-08-21T08:15:46;101646.03;;;18.22;72.75
53758;BME280;39674;59.860;30.672;2022-08-21T08:18:28;101599.06;;;17.92;71.53
53758;BME280;39674;59.860;30.672;2022-08-21T08:20:58;101628.06;;;17.98;72.51
53758;BME280;39674;59.860;30.672;2022-08-21T08:23:27;101592.97;;;17.90;72.88
53758;BME280;39674;59.860;30.672;2022-08-21T08:25:58;101638.13;;;18.20;71.07
53758;BME280;39674;59.860;30.672;2022-08-21T08:28:32;101658.25;;;18.52;72.52
53758;BME280;39674;59.860;30.672;2022-08-21T08:31:04;101626.59;;;18.46;71.91
53758;BME280;39674;59.860;30.672;2022-08-21T08:33:42;101659.84;;;18.54;70.84
53758;BME280;39674;59.860;30.672;2022-08-21T08:36:15;101640.69;;;18.48;71.57
53758;BME280;39674;59.860;30.672;2022-08-21T08:38:53;101574.19;;;18.04;71.37
53758;BME280;39674;59.860;30.672;2022-08-21T08:41:26;101574.78;;;18.47;72.28
53758;BME280;39674;59.860;30.672;2022-08-21T08:44:02;101637.25;;;18.97;70.32
53758;BME280;39674;59.860;30.672;2022-08-21T08:46:41;101617.75;;;18.95;70.93
53758;BME280;39674;59.860;30.672;2022-08-21T08:49:20;101608.66;;;18.85;69.68
53758;BME280;39674;59.860;30.672;2022-08-21T08:52:00;101664.59;;;19.14;69.35
53758;BME280;39674;59.860;30.672;2022-08-21T08:54:34;101630.34;;;19.06;69.21
53758;BME280;39674;59.860;30.672;2022-08-21T08:57:17;101595.88;;;19.50;70.90
53758;BME280;39674;59.860;30.672;2022-08-21T08:59:55;101587.16;;;19.70;68.03
53758;BME280;39674;59.860;30.672;2022-08-21T09:02:33;101616.56;;;20.08;67.02
53758;BME280;39674;59.860;30.672;2022-08-21T09:05:41;101686.66;;;20.73;64.96
53758;BME280;39674;59.860;30.672;2022-08-21T09:08:44;101634.41;;;20.54;65.82
53758;BME280;39674;59.860;30.672;2022-08-21T09:11:26;101666.84;;;20.96;64.36
53758;BME280;39674;59.860;30.672;2022-08-21T09:14:08;101677.91;;;21.26;63.74
53758;BME280;39674;59.860;30.672;2022-08-21T09:17:00;101638.94;;;21.31;62.65
53758;BME280;39674;59.860;30.672;2022-08-21T09:19:43;101608.75;;;21.07;62.13
53758;BME280;39674;59.860;30.672;2022-08-21T09:22:28;101623.06;;;21.28;61.97
53758;BME280;39674;59.860;30.672;2022-08-21T09:25:10;101633.31;;;21.35;62.18
53758;BME280;39674;59.860;30.672;2022-08-21T09:27:43;101605.56;;;21.02;62.58
53758;BME280;39674;59.860;30.672;2022-08-21T09:30:16;101559.50;;;20.51;63.57
53758;BME280;39674;59.860;30.672;2022-08-21T09:33:06;101561.81;;;20.22;63.98
53758;BME280;39674;59.860;30.672;2022-08-21T09:35:48;101559.25;;;20.09;64.37
53758;BME280;39674;59.860;30.672;2022-08-21T09:38:28;101664.50;;;20.46;65.58
53758;BME280;39674;59.860;30.672;2022-08-21T09:41:02;101631.63;;;19.97;66.89
53758;BME280;39674;59.860;30.672;2022-08-21T09:43:32;101621.16;;;19.94;67.53
53758;BME280;39674;59.860;30.672;2022-08-21T09:46:20;101567.59;;;19.46;67.23
53758;BME280;39674;59.860;30.672;2022-08-21T09:48:51;101568.31;;;19.36;68.26
53758;BME280;39674;59.860;30.672;2022-08-21T09:51:26;101576.28;;;19.61;68.41
53758;BME280;39674;59.860;30.672;2022-08-21T09:54:19;101610.94;;;20.11;67.07
53758;BME280;39674;59.860;30.672;2022-08-21T09:56:55;101647.28;;;20.15;67.08
53758;BME280;39674;59.860;30.672;2022-08-21T09:59:45;101648.75;;;20.19;68.04
53758;BME280;39674;59.860;30.672;2022-08-21T10:02:29;101641.09;;;20.60;66.67
53758;BME280;39674;59.860;30.672;2022-08-21T10:05:08;101632.69;;;20.42;67.42
53758;BME280;39674;59.860;30.672;2022-08-21T10:07:46;101567.31;;;20.20;67.22
53758;BME280;39674;59.860;30.672;2022-08-21T10:10:19;101588.28;;;20.49;67.68
53758;BME280;39674;59.860;30.672;2022-08-21T10:12:53;101522.22;;;20.02;66.43
53758;BME280;39674;59.860;30.672;2022-08-21T10:15:37;101512.19;;;19.93;66.66
53758;BME280;39674;59.860;30.672;2022-08-21T10:18:17;101558.53;;;20.18;66.63
53758;BME280;39674;59.860;30.672;2022-08-21T10:21:03;101508.28;;;19.97;67.64
53758;BME280;39674;59.860;30.672;2022-08-21T10:23:41;101634.41;;;20.77;65.82
53758;BME280;39674;59.860;30.672;2022-08-21T10:26:25;101559.75;;;20.14;67.07
53758;BME280;39674;59.860;30.672;2022-08-21T10:29:11;101592.19;;;20.33;68.71
53758;BME280;39674;59.860;30.672;2022-08-21T10:31:50;101565.47;;;20.09;67.21
53758;BME280;39674;59.860;30.672;2022-08-21T10:34:37;101526.56;;;19.92;68.89
53758;BME280;39674;59.860;30.672;2022-08-21T10:37:30;101511.97;;;19.96;67.76
53758;BME280;39674;59.860;30.672;2022-08-21T10:40:13;101582.66;;;20.52;67.98
53758;BME280;39674;59.860;30.672;2022-08-21T10:42:56;101548.66;;;20.30;68.08
53758;BME280;39674;59.860;30.672;2022-08-21T10:45:36;101590.72;;;20.86;67.99
53758;BME280;39674;59.860;30.672;2022-08-21T10:48:19;101518.00;;;20.78;66.24
53758;BME280;39674;59.860;30.672;2022-08-21T10:51:19;101520.31;;;21.15;64.80
53758;BME280;39674;59.860;30.672;2022-08-21T10:54:10;101543.75;;;21.67;64.49
53758;BME280;39674;59.860;30.672;2022-08-21T10:56:56;101615.88;;;22.46;64.27
53758;BME280;39674;59.860;30.672;2022-08-21T11:00:23;101505.19;;;21.99;61.89
53758;BME280;39674;59.860;30.672;2022-08-21T11:02:51;101561.44;;;22.11;61.26
53758;BME280;39674;59.860;30.672;2022-08-21T11:05:54;101508.28;;;21.73;60.21
53758;BME280;39674;59.860;30.672;2022-08-21T11:08:50;101575.34;;;22.17;60.85
53758;BME280;39674;59.860;30.672;2022-08-21T11:11:45;101620.34;;;22.67;62.18
53758;BME280;39674;59.860;30.672;2022-08-21T11:14:53;101554.75;;;22.37;59.98
53758;BME280;39674;59.860;30.672;2022-08-21T11:17:57;101581.34;;;22.30;60.86
53758;BME280;39674;59.860;30.672;2022-08-21T11:21:10;101553.06;;;22.05;60.53
53758;BME280;39674;59.860;30.672;2022-08-21T11:24:09;101608.94;;;22.53;60.01
53758;BME280;39674;59.860;30.672;2022-08-21T11:26:44;101517.28;;;22.14;60.48
53758;BME280;39674;59.860;30.672;2022-08-21T11:45:46;101471.28;;;22.78;60.09
53758;BME280;39674;59.860;30.672;2022-08-21T11:51:27;101588.47;;;23.62;59.90
53758;BME280;39674;59.860;30.672;2022-08-21T11:54:48;101549.03;;;23.21;58.49
53758;BME280;39674;59.860;30.672;2022-08-21T12:02:15;101565.19;;;23.21;58.67
53758;BME280;39674;59.860;30.672;2022-08-21T12:05:23;101540.72;;;22.74;59.48
53758;BME280;39674;59.860;30.672;2022-08-21T12:08:05;101556.16;;;22.72;60.38
53758;BME280;39674;59.860;30.672;2022-08-21T12:11:08;101552.91;;;22.78;60.03
53758;BME280;39674;59.860;30.672;2022-08-21T12:13:57;101494.97;;;22.33;60.83
53758;BME280;39674;59.860;30.672;2022-08-21T12:17:05;101559.72;;;22.72;60.28
53758;BME280;39674;59.860;30.672;2022-08-21T12:19:34;101494.88;;;22.04;60.47
53758;BME280;39674;59.860;30.672;2022-08-21T12:22:11;101554.50;;;22.40;62.02
53758;BME280;39674;59.860;30.672;2022-08-21T12:24:44;101595.06;;;22.48;61.62
53758;BME280;39674;59.860;30.672;2022-08-21T12:27:28;101520.94;;;22.13;62.00
53758;BME280;39674;59.860;30.672;2022-08-21T12:30:05;101474.25;;;21.83;62.35
53758;BME280;39674;59.860;30.672;2022-08-21T12:32:46;101573.53;;;22.48;62.54
53758;BME280;39674;59.860;30.672;2022-08-21T12:35:33;101491.81;;;21.87;64.17
53758;BME280;39674;59.860;30.672;2022-08-21T12:38:14;101491.13;;;21.85;63.26
53758;BME280;39674;59.860;30.672;2022-08-21T12:40:53;101511.16;;;21.81;64.17
53758;BME280;39674;59.860;30.672;2022-08-21T12:43:29;101534.50;;;22.02;63.91
53758;BME280;39674;59.860;30.672;2022-08-21T12:46:05;101534.50;;;22.02;64.10
53758;BME280;39674;59.860;30.672;2022-08-21T12:49:02;101492.28;;;21.71;65.80
53758;BME280;39674;59.860;30.672;2022-08-21T12:51:54;101475.88;;;21.64;66.01
53758;BME280;39674;59.860;30.672;2022-08-21T12:54:45;101530.28;;;22.09;65.12
53758;BME280;39674;59.860;30.672;2022-08-21T12:57:21;101541.09;;;22.19;64.64
53758;BME280;39674;59.860;30.672;2022-08-21T13:00:04;101547.84;;;22.13;65.06
53758;BME280;39674;59.860;30.672;2022-08-21T13:02:45;101542.22;;;22.16;65.72
53758;BME280;39674;59.860;30.672;2022-08-21T13:05:29;101556.50;;;22.38;65.15
53758;BME280;39674;59.860;30.672;2022-08-21T13:08:14;101527.13;;;22.35;65.59
53758;BME280;39674;59.860;30.672;2022-08-21T13:11:05;101529.31;;;22.41;65.86
53758;BME280;39674;59.860;30.672;2022-08-21T13:13:53;101526.06;;;22.47;65.38
53758;BME280;39674;59.860;30.672;2022-08-21T13:16:26;101517.09;;;22.37;65.81
53758;BME280;39674;59.860;30.672;2022-08-21T13:19:00;101526.63;;;22.51;67.06
53758;BME280;39674;59.860;30.672;2022-08-21T13:21:38;101502.16;;;22.54;65.64
53758;BME280;39674;59.860;30.672;2022-08-21T13:24:46;101561.75;;;23.00;65.26
53758;BME280;39674;59.860;30.672;2022-08-21T13:27:24;101455.34;;;22.45;65.69
53758;BME280;39674;59.860;30.672;2022-08-21T13:30:10;101505.31;;;22.79;64.51
53758;BME280;39674;59.860;30.672;2022-08-21T13:32:50;101506.13;;;22.79;65.06
53758;BME280;39674;59.860;30.672;2022-08-21T13:35:35;101478.06;;;22.62;65.63
53758;BME280;39674;59.860;30.672;2022-08-21T13:38:33;101548.13;;;23.11;64.97
53758;BME280;39674;59.860;30.672;2022-08-21T13:41:16;101525.16;;;22.97;62.89
53758;BME280;39674;59.860;30.672;2022-08-21T13:43:57;101502.19;;;22.93;63.61
53758;BME280;39674;59.860;30.672;2022-08-21T13:46:34;101502.47;;;23.00;64.22
53758;BME280;39674;59.860;30.672;2022-08-21T13:49:12;101439.94;;;22.67;63.62
53758;BME280;39674;59.860;30.672;2022-08-21T13:51:56;101545.19;;;23.44;61.98
53758;BME280;39674;59.860;30.672;2022-08-21T13:54:52;101498.78;;;23.11;61.25
53758;BME280;39674;59.860;30.672;2022-08-21T13:57:28;101434.97;;;22.62;61.53